Aeroporto :
LOGIN :

Iscrizione | Disclaimer

   EN    FR    IT 

 










Sommario :    VFR   VFR Marginale   IFR   IFR Intensivo   IFR Molto Intensivo
Visibilità : 
Base nubi : 
>= 8 km
>= 3000ft
5 / 8 km
1000 / 3000 ft
1500m / 5 km
500 / 1000 ft
800 / 1500m
200 / 500 ft
< 800m
< 200 ft
Simboli :   Temporali  Nebbia  Neve Forte  Precipitazioni Forti  Vento > 20 kt
SIGMETs :   Varie  Temporali  Ghiacco  Turbolenza  Onda orograficha  Ceneri Vulcaniche







- Altitudine del aeroporto : 681 ft
- Codice IATA : LBA
- Carte del aeroporto


EGNM - Leeds Bradford

ULTIMO METAR :
  • 250450Z 05002KT 4500 BR NSC 14/12 Q1018

METARs OBSOLETI :
  • 250420Z VRB02KT 6000 NSC 14/12 Q1018
  • 250350Z 05004KT 5000 NSC 14/12 Q1018
  • 250320Z VRB02KT 5000 NSC 14/12 Q1018
  • 250250Z 06002KT 6000 NSC 14/12 Q1018
  • 250220Z 06004KT 7000 NSC 15/12 Q1018

TAF TAF EGNM
Valido dal 25 a 00 ore il 26 a 00 ore UTC


242258Z 2500/2524 VRB05KT CAVOK
BECMG 2500/2503 7000
PROB30 2503/2507 2000 BR
BECMG 2506/2510 CAVOK
PROB40 2521/2524 8000
ATIS : +44 113 250 9696 (x2489)
Nessun NOTAM noto per questo aeroporto.



MetMap, La meteo Aeronautica in un colpo d'occhio ! - Copyright ORBIFLY Dicembre 2007 - Disclaimer

ORBIFLY MET'MAP TEAM :

Programmazione e sviluppo : Alexandra Zaïnal
Concezione e sviluppo : Baudouin d'Aumeries
Co-Programmazione e sviluppo : Marc-Olivier Méhu
Supporto tecnico e logistico : Manuel Goepfert
Aiuto per la traduzione : Arnaldo La Scala

Contatto : metmap@orbifly.com




FONTI E CREDITI :

   NOAA